createdAt,value
2018-10-05T00:00:27.845Z,66.53
2018-10-05T00:01:27.704Z,65.07
2018-10-05T00:02:27.639Z,64.78
2018-10-05T00:03:27.571Z,63.42
2018-10-05T00:04:27.487Z,62.93
2018-10-05T00:05:27.474Z,62.83
2018-10-05T00:06:27.848Z,62.44
2018-10-05T00:07:27.409Z,62.83
2018-10-05T00:08:27.369Z,63.02
2018-10-05T00:09:27.342Z,62.93
2018-10-05T00:10:27.309Z,62.83
2018-10-05T00:11:27.297Z,62.54
2018-10-05T00:12:27.567Z,62.54
2018-10-05T00:13:27.224Z,63.12
2018-10-05T00:14:27.198Z,63.51
2018-10-05T00:15:27.163Z,63.42
2018-10-05T00:16:27.126Z,62.83
2018-10-05T00:17:27.116Z,62.93
2018-10-05T00:18:27.362Z,62.05
2018-10-05T00:19:27.055Z,61.66
2018-10-05T00:20:27.055Z,61.47
2018-10-05T00:21:26.990Z,61.18
2018-10-05T00:22:26.966Z,60.49
2018-10-05T00:23:26.926Z,60.78
2018-10-05T00:24:26.897Z,60.59
2018-10-05T00:25:26.879Z,60.78
2018-10-05T00:26:26.847Z,60.88
2018-10-05T00:27:26.801Z,61.76
2018-10-05T00:28:26.780Z,62.05
2018-10-05T00:29:26.773Z,62.25
2018-10-05T00:30:26.939Z,62.73
2018-10-05T00:31:26.696Z,62.54
2018-10-05T00:32:26.712Z,62.25
2018-10-05T00:33:26.627Z,61.66
2018-10-05T00:34:26.621Z,61.86
2018-10-05T00:35:26.580Z,62.93
2018-10-05T00:36:26.571Z,64.20
2018-10-05T00:37:26.519Z,65.85
2018-10-05T00:38:26.486Z,66.73
2018-10-05T00:39:26.568Z,67.93
2018-10-05T00:40:26.441Z,68.29
2018-10-05T00:41:26.412Z,68.87
2018-10-05T00:42:26.370Z,69.10
2018-10-05T00:43:26.403Z,68.87
2018-10-05T00:44:26.308Z,68.87
2018-10-05T00:45:26.438Z,67.70
2018-10-05T00:46:26.243Z,67.60
2018-10-05T00:47:26.216Z,67.90
2018-10-05T00:48:26.207Z,68.77
2018-10-05T00:49:26.237Z,69.26
2018-10-05T00:50:26.160Z,69.46
2018-10-05T00:51:26.107Z,69.56
2018-10-05T00:52:26.078Z,69.46
2018-10-05T00:53:26.140Z,68.77
2018-10-05T00:54:26.029Z,69.07
2018-10-05T00:55:25.994Z,68.68
2018-10-05T00:56:25.961Z,68.68
2018-10-05T00:57:25.948Z,68.48
2018-10-05T00:58:26.024Z,68.77
2018-10-05T00:59:25.895Z,67.50
2018-10-05T01:00:25.842Z,67.60
2018-10-05T01:01:25.814Z,67.60
2018-10-05T01:02:25.787Z,68.38
2018-10-05T01:03:25.792Z,68.35
2018-10-05T01:04:25.726Z,68.77
2018-10-05T01:05:25.689Z,68.97
2018-10-05T01:06:25.660Z,68.06
2018-10-05T01:07:25.647Z,67.86
2018-10-05T01:08:25.615Z,67.67
2018-10-05T01:09:25.606Z,67.18
2018-10-05T01:10:25.561Z,67.90
2018-10-05T01:11:25.667Z,67.90
2018-10-05T01:12:25.535Z,66.89
2018-10-05T01:13:25.453Z,67.60
2018-10-05T01:14:25.430Z,67.32
2018-10-05T01:15:25.418Z,67.18
2018-10-05T01:16:25.383Z,67.08
2018-10-05T01:17:25.503Z,66.73
2018-10-05T01:18:25.329Z,66.69
2018-10-05T01:19:25.285Z,66.24
2018-10-05T01:20:25.279Z,66.53
2018-10-05T01:21:25.224Z,66.31
2018-10-05T01:22:25.199Z,66.53
2018-10-05T01:23:25.172Z,65.85
2018-10-05T01:24:25.155Z,66.05
2018-10-05T01:25:25.150Z,66.05
2018-10-05T01:26:25.085Z,65.26
2018-10-05T01:27:25.047Z,64.78
2018-10-05T01:28:25.227Z,64.69
2018-10-05T01:29:24.985Z,64.69
2018-10-05T01:30:24.963Z,64.26
2018-10-05T01:31:24.930Z,64.10
2018-10-05T01:32:24.908Z,63.61
2018-10-05T01:33:24.893Z,64.20
2018-10-05T01:34:24.840Z,63.90
2018-10-05T01:35:24.833Z,64.26
2018-10-05T01:36:24.774Z,63.58
2018-10-05T01:37:24.770Z,63.09
2018-10-05T01:38:24.739Z,62.73
2018-10-05T01:39:24.707Z,62.80
2018-10-05T01:40:24.668Z,62.80
2018-10-05T01:41:24.639Z,62.90
2018-10-05T01:42:24.659Z,62.32
2018-10-05T01:43:24.587Z,62.22
2018-10-05T01:44:24.561Z,61.63
2018-10-05T01:45:24.523Z,61.73
2018-10-05T01:46:24.544Z,62.02
2018-10-05T01:47:24.475Z,62.12
2018-10-05T01:48:24.632Z,61.93
2018-10-05T01:49:24.405Z,62.12
2018-10-05T01:50:24.382Z,63.58
2018-10-05T01:51:24.356Z,65.14
2018-10-05T01:52:24.308Z,65.33
2018-10-05T01:53:24.285Z,65.72
2018-10-05T01:54:24.509Z,65.72
2018-10-05T01:55:24.228Z,65.82
2018-10-05T01:56:24.215Z,66.60
2018-10-05T01:57:24.185Z,67.08
2018-10-05T01:58:24.135Z,66.89
2018-10-05T01:59:24.106Z,68.16
2018-10-05T02:00:24.067Z,68.55
2018-10-05T02:01:24.049Z,68.45
2018-10-05T02:02:24.108Z,68.45
2018-10-05T02:03:23.985Z,68.84
2018-10-05T02:04:23.971Z,68.93
2018-10-05T02:05:24.045Z,69.52
2018-10-05T02:06:23.894Z,69.23
2018-10-05T02:07:23.886Z,69.71
2018-10-05T02:08:23.833Z,69.52
2018-10-05T02:09:23.817Z,70.10
2018-10-05T02:10:23.778Z,69.42
2018-10-05T02:11:23.757Z,69.52
2018-10-05T02:12:23.713Z,69.91
2018-10-05T02:13:23.698Z,69.81
2018-10-05T02:14:23.656Z,69.91
2018-10-05T02:15:23.658Z,69.81
2018-10-05T02:16:23.610Z,70.10
2018-10-05T02:17:23.589Z,70.10
2018-10-05T02:18:23.553Z,70.10
2018-10-05T02:19:23.519Z,69.81
2018-10-05T02:20:23.748Z,70.30
2018-10-05T02:21:23.463Z,71.17
2018-10-05T02:22:23.438Z,71.37
2018-10-05T02:23:23.388Z,71.86
2018-10-05T02:24:23.381Z,72.73
2018-10-05T02:25:23.339Z,72.83
2018-10-05T02:26:23.459Z,73.02
2018-10-05T02:27:23.296Z,72.83
2018-10-05T02:28:23.252Z,72.92
2018-10-05T02:29:23.244Z,73.02
2018-10-05T02:30:23.197Z,73.02
2018-10-05T02:31:23.172Z,72.80
2018-10-05T02:32:23.129Z,72.64
2018-10-05T02:33:23.102Z,72.41
2018-10-05T02:34:23.066Z,71.86
2018-10-05T02:35:23.043Z,71.86
2018-10-05T02:36:23.017Z,71.82
2018-10-05T02:37:22.995Z,72.02
2018-10-05T02:38:22.957Z,72.21
2018-10-05T02:39:22.943Z,71.72
2018-10-05T02:40:22.904Z,71.82
2018-10-05T02:41:22.869Z,72.02
2018-10-05T02:42:22.837Z,72.11
2018-10-05T02:43:22.808Z,72.02
2018-10-05T02:44:22.878Z,71.92
2018-10-05T02:45:22.748Z,72.02
2018-10-05T02:46:22.722Z,72.31
2018-10-05T02:47:22.687Z,71.92
2018-10-05T02:48:22.661Z,72.02
2018-10-05T02:49:22.635Z,72.02
2018-10-05T02:50:22.617Z,71.82
2018-10-05T02:51:22.595Z,71.62
2018-10-05T02:53:22.523Z,71.82
2018-10-05T02:54:22.485Z,71.23
2018-10-05T02:55:22.454Z,70.17
2018-10-05T02:56:22.426Z,70.65
2018-10-05T02:57:22.399Z,70.46
2018-10-05T02:58:22.363Z,69.78
2018-10-05T02:59:22.347Z,69.68
2018-10-05T03:00:22.299Z,69.58
2018-10-05T03:01:22.274Z,69.58
2018-10-05T03:02:22.241Z,69.00
2018-10-05T03:03:22.206Z,68.80
2018-10-05T03:04:22.186Z,68.51
2018-10-05T03:05:22.154Z,68.71
2018-10-05T03:06:22.163Z,68.51
2018-10-05T03:07:22.090Z,70.07
2018-10-05T03:08:22.105Z,70.85
2018-10-05T03:09:22.031Z,71.62
2018-10-05T03:10:22.001Z,71.72
2018-10-05T03:11:21.978Z,71.82
2018-10-05T03:12:21.953Z,71.82
2018-10-05T03:13:21.913Z,72.11
2018-10-05T03:14:21.888Z,72.70
2018-10-05T03:15:21.860Z,73.28
2018-10-05T03:16:21.831Z,72.80
2018-10-05T03:17:21.796Z,72.89
2018-10-05T03:18:21.769Z,72.70
2018-10-05T03:19:21.746Z,73.38
2018-10-05T03:20:21.702Z,72.66
2018-10-05T03:21:21.723Z,73.96
2018-10-05T03:22:21.662Z,74.26
2018-10-05T03:23:21.625Z,73.96
2018-10-05T03:24:21.589Z,73.96
2018-10-05T03:25:21.563Z,73.77
2018-10-05T03:26:21.532Z,73.83
2018-10-05T03:27:21.500Z,74.55
2018-10-05T03:28:21.479Z,74.80
2018-10-05T03:29:21.443Z,74.51
2018-10-05T03:30:21.418Z,74.71
2018-10-05T03:31:21.398Z,74.55
2018-10-05T03:32:21.351Z,74.41
2018-10-05T03:33:21.328Z,74.99
2018-10-05T03:34:21.305Z,74.90
2018-10-05T03:35:21.254Z,75.29
2018-10-05T03:36:21.247Z,75.29
2018-10-05T03:37:21.202Z,75.38
2018-10-05T03:38:21.181Z,74.99
2018-10-05T03:39:21.158Z,74.99
2018-10-05T03:40:21.119Z,76.17
2018-10-05T03:41:21.089Z,75.38
2018-10-05T03:42:21.067Z,75.48
2018-10-05T03:43:21.038Z,75.58
2018-10-05T03:44:20.994Z,74.90
2018-10-05T03:45:20.965Z,74.71
2018-10-05T03:46:20.939Z,74.41
2018-10-05T03:47:20.897Z,74.61
2018-10-05T03:48:20.886Z,73.73
2018-10-05T03:49:20.842Z,73.83
2018-10-05T03:50:20.828Z,73.93
2018-10-05T03:51:20.782Z,73.73
2018-10-05T03:52:20.769Z,73.93
2018-10-05T03:53:20.739Z,74.22
2018-10-05T03:54:20.706Z,73.93
2018-10-05T03:55:20.667Z,73.89
2018-10-05T03:56:20.634Z,74.67
2018-10-05T03:57:20.605Z,74.38
2018-10-05T03:58:20.578Z,74.38
2018-10-05T03:59:20.696Z,74.38
2018-10-05T04:00:20.512Z,74.48
2018-10-05T04:01:20.485Z,74.57
2018-10-05T04:02:20.452Z,74.08
2018-10-05T04:03:20.429Z,73.89
2018-10-05T04:04:20.410Z,73.89
2018-10-05T04:05:20.699Z,73.79
2018-10-05T04:06:20.339Z,74.57
2018-10-05T04:07:20.301Z,74.38
2018-10-05T04:08:20.282Z,74.57
2018-10-05T04:09:20.249Z,74.48
2018-10-05T04:10:20.228Z,74.67
2018-10-05T04:11:20.342Z,73.60
2018-10-05T04:12:20.156Z,73.89
2018-10-05T04:13:20.134Z,74.08
2018-10-05T04:14:20.099Z,73.79
2018-10-05T04:15:20.066Z,74.48
2018-10-05T04:16:20.044Z,74.28
2018-10-05T04:17:20.013Z,73.69
2018-10-05T04:18:19.986Z,73.89
2018-10-05T04:19:19.956Z,73.50
2018-10-05T04:20:19.927Z,74.18
2018-10-05T04:21:19.894Z,73.79
2018-10-05T04:22:19.862Z,73.89
2018-10-05T04:23:19.837Z,73.69
2018-10-05T04:24:19.801Z,74.38
2018-10-05T04:25:19.807Z,73.69
2018-10-05T04:26:19.766Z,73.69
2018-10-05T04:27:19.772Z,73.02
2018-10-05T04:28:19.699Z,73.02
2018-10-05T04:29:19.668Z,72.82
2018-10-05T04:30:19.647Z,72.86
2018-10-05T04:31:19.616Z,73.60
2018-10-05T04:32:19.761Z,73.79
2018-10-05T04:33:19.559Z,73.89
2018-10-05T04:34:19.526Z,73.50
2018-10-05T04:35:19.496Z,73.50
2018-10-05T04:36:19.467Z,73.30
2018-10-05T04:37:19.429Z,73.79
2018-10-05T04:38:19.569Z,73.89
2018-10-05T04:39:19.383Z,73.60
2018-10-05T04:40:19.338Z,73.89
2018-10-05T04:41:19.335Z,73.79
2018-10-05T04:42:19.280Z,73.79
2018-10-05T04:43:19.262Z,74.08
2018-10-05T04:44:19.231Z,74.08
2018-10-05T04:45:19.200Z,73.50
2018-10-05T04:46:19.170Z,73.30
2018-10-05T04:47:19.137Z,73.89
2018-10-05T04:48:19.176Z,74.67
2018-10-05T04:49:19.083Z,74.76
2018-10-05T04:50:19.044Z,74.76
2018-10-05T04:51:19.036Z,74.48
2018-10-05T04:52:18.993Z,74.08
2018-10-05T04:53:18.951Z,73.50
2018-10-05T04:54:18.930Z,73.69
2018-10-05T04:55:18.893Z,72.92
2018-10-05T04:56:18.870Z,73.30
2018-10-05T04:57:18.842Z,73.50
2018-10-05T04:58:18.860Z,72.92
2018-10-05T04:59:18.779Z,73.21
2018-10-05T05:00:18.752Z,73.02
2018-10-05T05:01:18.722Z,72.92
2018-10-05T05:02:18.689Z,73.40
2018-10-05T05:03:18.727Z,73.50
2018-10-05T05:04:18.956Z,73.69
2018-10-05T05:05:18.598Z,73.89
2018-10-05T05:06:18.592Z,73.60
2018-10-05T05:07:18.640Z,74.38
2018-10-05T05:08:18.521Z,74.48
2018-10-05T05:09:18.493Z,75.35
2018-10-05T05:10:18.615Z,75.25
2018-10-05T05:11:18.440Z,75.45
2018-10-05T05:12:18.410Z,75.70
2018-10-05T05:13:18.414Z,74.92
2018-10-05T05:14:18.347Z,75.51
2018-10-05T05:15:18.297Z,75.70
2018-10-05T05:16:18.269Z,76.09
2018-10-05T05:17:18.243Z,76.09
2018-10-05T05:18:18.205Z,76.03
2018-10-05T05:21:05.394Z,76.22
2018-10-05T05:22:37.908Z,76.48
2018-10-05T05:23:37.878Z,76.67
2018-10-05T05:24:37.849Z,76.77
2018-10-05T05:26:48.327Z,76.48
2018-10-05T05:28:21.558Z,76.18
2018-10-05T05:28:48.143Z,75.51
2018-10-05T05:29:48.087Z,75.89
2018-10-05T05:30:48.064Z,75.70
2018-10-05T05:31:48.013Z,75.89
2018-10-05T05:32:47.996Z,75.89
2018-10-05T05:33:48.037Z,75.12
2018-10-05T05:34:47.936Z,75.80
2018-10-05T05:35:47.900Z,76.28
2018-10-05T05:36:47.864Z,76.18
2018-10-05T05:37:47.846Z,76.48
2018-10-05T05:38:47.800Z,76.87
2018-10-05T05:39:47.772Z,76.67
2018-10-05T05:40:47.785Z,76.57
2018-10-05T05:41:47.739Z,76.57
2018-10-05T05:42:47.734Z,77.06
2018-10-05T05:43:47.694Z,76.57
2018-10-05T05:44:47.685Z,77.06
2018-10-05T05:45:47.606Z,76.77
2018-10-05T05:46:47.616Z,76.77
2018-10-05T05:47:47.807Z,76.97
2018-10-05T05:48:47.532Z,76.87
2018-10-05T05:49:47.506Z,77.25
2018-10-05T05:50:47.474Z,77.25
2018-10-05T05:51:47.440Z,77.25
2018-10-05T05:52:47.409Z,76.48
2018-10-05T05:53:47.565Z,76.67
2018-10-05T05:54:47.369Z,76.48
2018-10-05T05:55:47.323Z,76.18
2018-10-05T05:56:47.310Z,76.28
2018-10-05T05:57:47.257Z,76.38
2018-10-05T05:58:47.278Z,76.48
2018-10-05T05:59:47.218Z,75.60
2018-10-05T06:00:47.181Z,75.89
2018-10-05T06:01:47.144Z,74.63
2018-10-05T06:02:47.128Z,74.82
2018-10-05T06:03:47.083Z,74.82
2018-10-05T06:04:47.054Z,75.21
2018-10-05T06:05:47.047Z,75.21
2018-10-05T06:06:46.995Z,74.44
2018-10-05T06:07:46.954Z,74.34
2018-10-05T06:08:46.917Z,74.54
2018-10-05T06:09:46.885Z,75.02
2018-10-05T06:10:46.876Z,75.47
2018-10-05T06:11:46.824Z,76.18
2018-10-05T06:12:46.796Z,75.60
2018-10-05T06:13:46.785Z,75.41
2018-10-05T06:14:46.737Z,76.18
2018-10-05T06:15:46.714Z,75.80
2018-10-05T06:16:46.676Z,76.18
2018-10-05T06:17:46.643Z,75.70
2018-10-05T06:18:46.628Z,75.70
2018-10-05T06:19:46.567Z,75.31
2018-10-05T06:20:46.556Z,75.89
2018-10-05T06:21:46.656Z,75.21
2018-10-05T06:22:46.480Z,74.34
2018-10-05T06:23:46.489Z,74.05
2018-10-05T06:24:46.438Z,74.34
2018-10-05T06:25:46.388Z,73.75
2018-10-05T06:26:46.358Z,73.95
2018-10-05T06:27:46.328Z,73.56
2018-10-05T06:28:46.315Z,74.54
2018-10-05T06:29:46.267Z,75.21
2018-10-05T06:30:46.296Z,74.63
2018-10-05T06:31:46.234Z,74.34
2018-10-05T06:32:46.178Z,74.24
2018-10-05T06:33:46.152Z,74.92
2018-10-05T06:34:46.127Z,75.02
2018-10-05T06:35:46.088Z,75.89
2018-10-05T06:36:46.078Z,75.41
2018-10-05T06:37:46.057Z,75.31
2018-10-05T06:38:46.027Z,75.31
2018-10-05T06:39:45.967Z,75.89
2018-10-05T06:40:45.937Z,75.08
2018-10-05T06:41:45.904Z,75.95
2018-10-05T06:42:45.902Z,75.57
2018-10-05T06:43:45.867Z,75.57
2018-10-05T06:44:45.822Z,75.95
2018-10-05T06:45:45.786Z,76.05
2018-10-05T06:46:45.774Z,76.25
2018-10-05T06:47:45.741Z,76.44
2018-10-05T06:48:45.701Z,76.92
2018-10-05T06:49:45.687Z,76.34
2018-10-05T06:50:45.796Z,77.12
2018-10-05T06:51:45.627Z,76.92
2018-10-05T06:52:45.583Z,76.92
2018-10-05T06:53:45.548Z,76.83
2018-10-05T06:54:45.519Z,76.92
2018-10-05T06:55:45.494Z,76.92
2018-10-05T06:56:45.616Z,76.73
2018-10-05T06:57:45.423Z,77.41
2018-10-05T06:58:45.415Z,76.64
2018-10-05T06:59:45.384Z,76.54
2018-10-05T07:00:45.345Z,76.44
2018-10-05T07:01:45.327Z,75.95
2018-10-05T07:02:45.278Z,75.95
2018-10-05T07:03:45.249Z,75.57
2018-10-05T07:04:45.212Z,75.76
2018-10-05T07:05:45.205Z,75.47
2018-10-05T07:06:45.157Z,75.85
2018-10-05T07:07:45.151Z,76.25
2018-10-05T07:08:45.100Z,76.44
2018-10-05T07:09:45.064Z,76.83
2018-10-05T07:10:45.037Z,76.64
2018-10-05T07:11:45.032Z,76.64
2018-10-05T07:12:44.976Z,76.83
2018-10-05T07:13:44.946Z,76.92
2018-10-05T07:14:44.921Z,77.12
2018-10-05T07:15:44.910Z,77.22
2018-10-05T07:16:44.858Z,77.12
2018-10-05T07:17:44.820Z,77.02
2018-10-05T07:18:44.788Z,77.31
2018-10-05T07:19:44.755Z,76.64
2018-10-05T07:20:44.734Z,76.34
2018-10-05T07:21:44.704Z,76.64
2018-10-05T07:22:44.849Z,76.54
2018-10-05T07:23:44.638Z,76.44
2018-10-05T07:24:44.616Z,75.85
2018-10-05T07:25:44.622Z,75.95
2018-10-05T07:26:44.553Z,75.76
2018-10-05T07:27:44.525Z,75.47
2018-10-05T07:28:44.556Z,75.76
2018-10-05T07:29:44.471Z,75.76
2018-10-05T07:30:44.439Z,75.18
2018-10-05T07:31:44.401Z,75.18
2018-10-05T07:32:44.373Z,75.08
2018-10-05T07:33:44.340Z,75.27
2018-10-05T07:34:44.311Z,75.08
2018-10-05T07:35:44.279Z,75.27
2018-10-05T07:36:44.280Z,74.79
2018-10-05T07:37:44.255Z,74.79
2018-10-05T07:38:44.181Z,74.95
2018-10-05T07:39:44.172Z,74.95
2018-10-05T07:40:44.123Z,75.24
2018-10-05T07:41:44.111Z,75.24
2018-10-05T07:42:44.068Z,75.82
2018-10-05T07:43:44.083Z,75.04
2018-10-05T07:44:44.033Z,75.53
2018-10-05T07:45:43.975Z,75.72
2018-10-05T07:46:43.969Z,76.11
2018-10-05T07:47:43.919Z,75.82
2018-10-05T07:48:43.905Z,75.92
2018-10-05T07:49:43.861Z,75.72
2018-10-05T07:50:43.842Z,76.31
2018-10-05T07:51:43.809Z,76.40
2018-10-05T07:52:43.778Z,76.40
2018-10-05T07:53:43.735Z,76.60
2018-10-05T07:54:43.707Z,76.31
2018-10-05T07:55:43.711Z,76.69
2018-10-05T07:56:43.648Z,76.89
2018-10-05T07:57:43.659Z,76.79
2018-10-05T07:58:43.587Z,76.40
2018-10-05T07:59:43.562Z,76.69
2018-10-05T08:00:43.529Z,76.69
2018-10-05T08:01:43.497Z,77.08
2018-10-05T08:02:43.463Z,77.57
2018-10-05T08:03:43.433Z,77.57
2018-10-05T08:04:43.398Z,77.37
2018-10-05T08:05:43.374Z,77.76
2018-10-05T08:06:43.351Z,77.67
2018-10-05T08:07:43.312Z,77.47
2018-10-05T08:08:43.280Z,77.18
2018-10-05T08:09:43.355Z,76.95
2018-10-05T08:10:43.221Z,76.95
2018-10-05T08:11:43.215Z,77.14
2018-10-05T08:12:43.160Z,77.24
2018-10-05T08:13:43.129Z,77.34
2018-10-05T08:14:43.100Z,77.24
2018-10-05T08:15:43.069Z,77.14
2018-10-05T08:16:43.047Z,77.04
2018-10-05T08:17:43.007Z,77.04
2018-10-05T08:18:42.978Z,77.14
2018-10-05T08:19:42.945Z,77.04
2018-10-05T08:20:42.916Z,76.95
2018-10-05T08:21:42.892Z,77.14
2018-10-05T08:22:42.854Z,77.14
2018-10-05T08:23:42.838Z,76.85
2018-10-05T08:24:42.798Z,77.04
2018-10-05T08:25:42.774Z,76.95
2018-10-05T08:26:42.725Z,77.11
2018-10-05T08:27:42.730Z,77.14
2018-10-05T08:28:42.673Z,77.62
2018-10-05T08:29:42.654Z,77.92
2018-10-05T08:30:42.755Z,77.53
2018-10-05T08:31:42.581Z,77.53
2018-10-05T08:32:42.554Z,77.49
2018-10-05T08:33:42.524Z,77.20
2018-10-05T08:34:42.488Z,77.24
2018-10-05T08:35:42.484Z,76.91
2018-10-05T08:36:42.428Z,77.62
2018-10-05T08:37:42.401Z,77.69
2018-10-05T08:38:42.370Z,77.59
2018-10-05T08:39:42.391Z,77.59
2018-10-05T08:40:42.307Z,77.78
2018-10-05T08:41:42.269Z,77.49
2018-10-05T08:42:42.246Z,77.78
2018-10-05T08:43:42.213Z,78.07
2018-10-05T08:44:42.184Z,78.17
2018-10-05T08:45:42.186Z,78.56
2018-10-05T08:47:42.127Z,79.04
2018-10-05T08:48:42.076Z,79.14
2018-10-05T08:49:42.025Z,79.14
2018-10-05T08:50:41.991Z,79.24
2018-10-05T08:51:42.000Z,79.14
2018-10-05T08:52:41.939Z,78.94
2018-10-05T08:53:41.908Z,79.24
2018-10-05T08:54:41.878Z,78.85
2018-10-05T08:55:41.851Z,79.14
2018-10-05T08:56:41.821Z,79.24
2018-10-05T08:57:41.796Z,79.43
2018-10-05T08:58:41.753Z,79.33
2018-10-05T08:59:41.729Z,79.72
2018-10-05T09:00:41.695Z,79.82
2018-10-05T09:01:41.667Z,80.40
2018-10-05T09:02:41.936Z,80.07
2018-10-05T09:03:41.605Z,80.21
2018-10-05T09:04:41.573Z,80.21
2018-10-05T09:05:41.570Z,80.30
2018-10-05T09:06:41.509Z,80.30
2018-10-05T09:07:41.483Z,80.11
2018-10-05T09:08:41.553Z,80.94
2018-10-05T09:09:41.420Z,80.75
2018-10-05T09:10:41.388Z,80.88
2018-10-05T09:11:41.363Z,80.69
2018-10-05T09:12:41.330Z,80.65
2018-10-05T09:13:41.324Z,80.69
2018-10-05T09:14:41.257Z,81.08
2018-10-05T09:15:41.244Z,80.88
2018-10-05T09:16:41.205Z,80.79
2018-10-05T09:17:41.195Z,80.79
2018-10-05T09:18:41.145Z,80.98
2018-10-05T09:19:41.104Z,80.79
2018-10-05T09:20:41.093Z,80.69
2018-10-05T09:21:41.050Z,80.69
2018-10-05T09:22:41.021Z,80.60
2018-10-05T09:23:40.999Z,80.79
2018-10-05T09:24:40.971Z,80.69
2018-10-05T09:25:40.930Z,81.08
2018-10-05T09:26:40.908Z,80.93
2018-10-05T09:27:40.881Z,80.93
2018-10-05T09:28:40.827Z,80.25
2018-10-05T09:30:40.858Z,80.25
2018-10-05T09:31:40.748Z,80.34
2018-10-05T09:32:40.728Z,80.54
2018-10-05T09:33:40.687Z,80.44
2018-10-05T09:34:40.961Z,80.44
2018-10-05T09:35:40.623Z,80.48
2018-10-05T09:36:40.590Z,80.48
2018-10-05T09:37:40.592Z,80.38
2018-10-05T09:38:40.523Z,79.99
2018-10-05T09:39:40.499Z,80.29
2018-10-05T09:40:40.465Z,79.90
2018-10-05T09:41:40.452Z,79.80
2018-10-05T09:42:40.405Z,79.41
2018-10-05T09:43:40.374Z,79.32
2018-10-05T09:44:40.366Z,79.22
2018-10-05T09:45:40.315Z,79.02
2018-10-05T09:46:40.373Z,78.67
2018-10-05T09:47:40.255Z,77.61
2018-10-05T09:48:40.227Z,77.22
2018-10-05T09:49:40.193Z,77.51
2018-10-05T09:50:40.165Z,77.70
2018-10-05T09:51:40.151Z,78.33
2018-10-05T09:52:40.162Z,78.67
2018-10-05T09:53:40.069Z,79.20
2018-10-05T09:54:40.049Z,79.20
2018-10-05T09:55:40.008Z,79.39
2018-10-05T09:56:39.989Z,78.81
2018-10-05T09:57:39.952Z,77.94
2018-10-05T09:58:39.917Z,77.94
2018-10-05T09:59:39.908Z,77.25
2018-10-05T10:00:39.849Z,77.15
2018-10-05T10:01:39.828Z,76.67
2018-10-05T10:02:39.794Z,75.80
2018-10-05T10:03:40.120Z,75.60
2018-10-05T10:04:39.725Z,75.45
2018-10-05T10:05:39.700Z,75.31
2018-10-05T10:06:39.672Z,75.02
2018-10-05T10:07:39.636Z,73.95
2018-10-05T10:08:39.619Z,73.46
2018-10-05T10:09:39.582Z,73.46
2018-10-05T10:10:39.543Z,72.98
2018-10-05T10:12:39.493Z,71.66
2018-10-05T10:13:39.473Z,71.56
2018-10-05T10:14:39.430Z,71.46
2018-10-05T10:15:39.421Z,71.26
2018-10-05T10:16:39.380Z,71.66
2018-10-05T10:17:39.356Z,71.66
2018-10-05T10:18:39.298Z,72.14
2018-10-05T10:19:39.271Z,72.14
2018-10-05T10:20:39.246Z,72.14
2018-10-05T10:21:39.231Z,71.94
2018-10-05T10:22:39.239Z,70.87
2018-10-05T10:23:39.155Z,69.81
2018-10-05T10:24:39.126Z,69.71
2018-10-05T10:25:39.088Z,70.00
2018-10-05T10:26:39.073Z,69.61
2018-10-05T10:27:39.074Z,70.00
2018-10-05T10:28:39.055Z,69.90
2018-10-05T10:29:38.961Z,70.00
2018-10-05T10:30:38.939Z,69.71
2018-10-05T10:31:38.912Z,69.61
2018-10-05T10:32:38.873Z,69.61
2018-10-05T10:33:38.936Z,69.42
2018-10-05T10:34:38.833Z,68.32
2018-10-05T10:35:38.787Z,68.32
2018-10-05T10:36:38.778Z,68.41
2018-10-05T10:37:38.891Z,68.93
2018-10-05T10:38:38.698Z,68.93
2018-10-05T10:39:38.670Z,69.48
2018-10-05T10:40:38.648Z,69.58
2018-10-05T10:41:38.598Z,69.19
2018-10-05T10:42:38.609Z,68.90
2018-10-05T10:43:38.645Z,68.60
2018-10-05T10:44:38.513Z,69.19
2018-10-05T10:45:38.496Z,71.13
2018-10-05T10:46:38.453Z,73.50
2018-10-05T10:47:38.493Z,75.35
2018-10-05T10:48:38.390Z,76.03
2018-10-05T10:49:38.367Z,77.29
2018-10-05T10:50:38.325Z,77.68
2018-10-05T10:51:38.304Z,77.78
2018-10-05T10:52:38.267Z,77.29
2018-10-05T10:53:38.240Z,77.78
2018-10-05T10:54:38.208Z,79.10
2018-10-05T10:55:38.192Z,79.30
2018-10-05T10:56:38.149Z,80.17
2018-10-05T10:57:38.114Z,80.17
2018-10-05T10:58:38.088Z,80.46
2018-10-05T10:59:38.058Z,80.36
2018-10-05T11:00:38.053Z,80.76
2018-10-05T11:01:37.994Z,80.60
2018-10-05T11:02:37.978Z,80.17
2018-10-05T11:03:37.937Z,80.46
2018-10-05T11:04:37.937Z,80.66
2018-10-05T11:05:37.880Z,79.97
2018-10-05T11:06:37.841Z,79.97
2018-10-05T11:07:37.818Z,79.97
2018-10-05T11:08:37.798Z,78.81
2018-10-05T11:09:37.759Z,79.39
2018-10-05T11:10:37.721Z,78.71
2018-10-05T11:11:37.690Z,78.42
2018-10-05T11:12:37.655Z,78.42
2018-10-05T11:13:37.636Z,77.58
2018-10-05T11:14:37.598Z,77.45
2018-10-05T11:15:37.575Z,77.84
2018-10-05T11:16:37.532Z,77.78
2018-10-05T11:17:37.525Z,77.58
2018-10-05T11:18:37.482Z,77.45
2018-10-05T11:19:37.459Z,77.78
2018-10-05T11:20:37.425Z,77.58
2018-10-05T11:21:37.391Z,77.29
2018-10-05T11:22:37.360Z,77.00
2018-10-05T11:23:37.331Z,76.03
2018-10-05T11:24:37.310Z,75.45
2018-10-05T11:25:37.274Z,75.45
2018-10-05T11:26:37.243Z,75.74
2018-10-05T11:27:37.207Z,75.84
2018-10-05T11:28:37.184Z,75.15
2018-10-05T11:29:37.213Z,74.28
2018-10-05T11:30:37.128Z,73.02
2018-10-05T11:31:37.083Z,71.20
2018-10-05T11:32:37.059Z,71.36
2018-10-05T11:33:37.024Z,70.13
2018-10-05T11:34:36.997Z,69.45
2018-10-05T11:35:36.961Z,68.77
2018-10-05T11:36:36.948Z,67.11
2018-10-05T11:37:36.907Z,67.73
2018-10-05T11:38:36.876Z,66.76
2018-10-05T11:39:36.858Z,66.41
2018-10-05T11:40:36.866Z,66.02
2018-10-05T11:41:36.809Z,66.11
2018-10-05T11:42:36.801Z,66.44
2018-10-05T11:43:36.722Z,64.29
2018-10-05T11:44:36.696Z,63.74
2018-10-05T11:45:36.898Z,62.70
2018-10-05T11:47:36.600Z,61.20
2018-10-05T11:48:36.576Z,61.00
2018-10-05T11:49:36.539Z,60.42
2018-10-05T11:50:36.515Z,58.98
2018-10-05T11:51:36.500Z,58.13
2018-10-05T11:52:36.746Z,58.03
2018-10-05T11:53:36.435Z,58.23
2018-10-05T11:54:36.388Z,58.13
2018-10-05T11:55:36.403Z,57.57
2018-10-05T11:56:36.360Z,57.87
2018-10-05T11:57:36.300Z,56.89
2018-10-05T11:59:36.288Z,56.30
2018-10-05T12:00:36.221Z,56.33
2018-10-05T12:01:36.184Z,55.26
2018-10-05T12:02:36.196Z,53.62
2018-10-05T12:04:36.079Z,51.39
2018-10-05T12:05:36.064Z,50.42
2018-10-05T12:06:36.036Z,50.12
2018-10-05T12:07:35.996Z,48.97
2018-10-05T12:08:35.966Z,47.94
2018-10-05T12:09:35.945Z,46.78
2018-10-05T12:10:35.906Z,44.94
2018-10-05T12:11:35.890Z,43.79
2018-10-05T12:12:35.847Z,43.51
2018-10-05T12:13:36.161Z,42.86
2018-10-05T12:14:35.805Z,41.90
2018-10-05T12:15:35.771Z,41.53
2018-10-05T12:16:35.790Z,41.14
2018-10-05T12:17:35.972Z,41.24
2018-10-05T12:18:36.898Z,41.06
2018-10-05T12:19:35.931Z,40.96
2018-10-05T12:20:35.630Z,40.47
2018-10-05T12:21:35.610Z,40.66
2018-10-05T12:22:35.548Z,40.56
2018-10-05T12:23:35.513Z,41.04
2018-10-05T12:24:35.523Z,41.63
2018-10-05T12:26:35.457Z,41.71
2018-10-05T12:27:35.434Z,41.73
2018-10-05T12:28:35.368Z,41.27
2018-10-05T12:29:35.352Z,40.11
2018-10-05T12:30:35.322Z,39.23
2018-10-05T12:31:35.595Z,38.47
2018-10-05T12:32:36.004Z,37.41
2018-10-05T12:33:35.502Z,36.63
2018-10-05T12:34:35.188Z,35.76
2018-10-05T12:35:35.168Z,34.89
2018-10-05T12:36:35.406Z,34.61
2018-10-05T12:37:35.368Z,34.71
2018-10-05T12:38:35.072Z,34.13
2018-10-05T12:39:35.037Z,34.45
2018-10-05T12:40:35.008Z,34.05
2018-10-05T12:41:35.007Z,33.67
2018-10-05T12:42:34.957Z,33.47
2018-10-05T12:43:34.933Z,33.78
2018-10-05T12:44:34.903Z,33.09
2018-10-05T12:45:34.867Z,32.81
2018-10-05T12:46:34.838Z,32.43
2018-10-05T12:47:35.010Z,32.33
2018-10-05T12:48:34.783Z,32.24
2018-10-05T12:49:34.764Z,31.47
2018-10-05T12:50:34.720Z,30.89
2018-10-05T12:51:34.698Z,30.70
2018-10-05T12:52:34.665Z,30.12
2018-10-05T12:53:34.625Z,29.72
2018-10-05T12:54:34.614Z,29.52
2018-10-05T12:55:34.570Z,29.14
2018-10-05T12:56:34.553Z,28.86
2018-10-05T12:57:34.520Z,28.46
2018-10-05T12:58:34.477Z,28.27
2018-10-05T12:59:34.457Z,28.08
2018-10-05T13:00:34.430Z,28.27
2018-10-05T13:01:34.404Z,28.09
2018-10-05T13:02:34.366Z,27.30
2018-10-05T13:03:34.345Z,27.00